sensor_id;sensor_type;location;lat;lon;timestamp;pressure;altitude;pressure_sealevel;temperature;humidity
77062;BME280;65989;51.686;5.138;2023-05-07T00:00:21;101732.00;;;13.82;94.61
77062;BME280;65989;51.686;5.138;2023-05-07T00:02:47;101727.72;;;13.81;94.59
77062;BME280;65989;51.686;5.138;2023-05-07T00:05:13;101726.63;;;13.77;94.24
77062;BME280;65989;51.686;5.138;2023-05-07T00:07:39;101736.00;;;13.79;94.46
77062;BME280;65989;51.686;5.138;2023-05-07T00:10:05;101725.28;;;13.74;94.34
77062;BME280;65989;51.686;5.138;2023-05-07T00:12:32;101730.88;;;13.72;94.43
77062;BME280;65989;51.686;5.138;2023-05-07T00:15:04;101718.91;;;13.75;94.33
77062;BME280;65989;51.686;5.138;2023-05-07T00:17:30;101719.41;;;13.72;94.14
77062;BME280;65989;51.686;5.138;2023-05-07T00:19:56;101726.28;;;13.68;94.05
77062;BME280;65989;51.686;5.138;2023-05-07T00:22:21;101733.16;;;13.64;94.39
77062;BME280;65989;51.686;5.138;2023-05-07T00:24:47;101732.63;;;13.62;94.18
77062;BME280;65989;51.686;5.138;2023-05-07T00:27:12;101726.72;;;13.59;94.31
77062;BME280;65989;51.686;5.138;2023-05-07T00:29:37;101726.72;;;13.59;94.29
77062;BME280;65989;51.686;5.138;2023-05-07T00:32:03;101728.88;;;13.57;94.32
77062;BME280;65989;51.686;5.138;2023-05-07T00:34:28;101718.97;;;13.53;94.42
77062;BME280;65989;51.686;5.138;2023-05-07T00:36:54;101720.78;;;13.47;94.16
77062;BME280;65989;51.686;5.138;2023-05-07T00:39:19;101718.09;;;13.47;94.31
77062;BME280;65989;51.686;5.138;2023-05-07T00:41:44;101714.41;;;13.48;94.14
77062;BME280;65989;51.686;5.138;2023-05-07T00:44:11;101703.44;;;13.44;94.30
77062;BME280;65989;51.686;5.138;2023-05-07T00:46:37;101702.94;;;13.48;94.31
77062;BME280;65989;51.686;5.138;2023-05-07T00:49:02;101711.19;;;13.46;94.36
77062;BME280;65989;51.686;5.138;2023-05-07T00:51:30;101711.19;;;13.46;94.54
77062;BME280;65989;51.686;5.138;2023-05-07T00:53:56;101706.91;;;13.45;94.56
77062;BME280;65989;51.686;5.138;2023-05-07T00:56:21;101710.69;;;13.49;94.33
77062;BME280;65989;51.686;5.138;2023-05-07T00:58:47;101709.13;;;13.53;94.36
77062;BME280;65989;51.686;5.138;2023-05-07T01:01:13;101711.22;;;13.51;94.29
77062;BME280;65989;51.686;5.138;2023-05-07T01:03:41;101710.72;;;13.54;94.48
77062;BME280;65989;51.686;5.138;2023-05-07T01:06:07;101709.91;;;13.54;94.41
77062;BME280;65989;51.686;5.138;2023-05-07T01:08:33;101708.31;;;13.53;94.32
77062;BME280;65989;51.686;5.138;2023-05-07T01:11:01;101702.75;;;13.54;94.18
77062;BME280;65989;51.686;5.138;2023-05-07T01:13:27;101709.97;;;13.59;94.52
77062;BME280;65989;51.686;5.138;2023-05-07T01:15:53;101704.38;;;13.61;94.43
77062;BME280;65989;51.686;5.138;2023-05-07T01:18:18;101697.22;;;13.61;94.42
77062;BME280;65989;51.686;5.138;2023-05-07T01:20:45;101700.09;;;13.59;94.31
77062;BME280;65989;51.686;5.138;2023-05-07T01:23:11;101697.22;;;13.61;94.53
77062;BME280;65989;51.686;5.138;2023-05-07T01:25:36;101699.88;;;13.61;94.32
77062;BME280;65989;51.686;5.138;2023-05-07T01:28:01;101701.22;;;13.64;94.34
77062;BME280;65989;51.686;5.138;2023-05-07T01:30:28;101695.09;;;13.63;94.54
77062;BME280;65989;51.686;5.138;2023-05-07T01:33:02;101692.66;;;13.62;94.43
77062;BME280;65989;51.686;5.138;2023-05-07T01:35:36;101693.72;;;13.61;94.49
77062;BME280;65989;51.686;5.138;2023-05-07T01:38:03;101691.06;;;13.61;94.75
77062;BME280;65989;51.686;5.138;2023-05-07T01:40:29;101693.16;;;13.58;94.55
77062;BME280;65989;51.686;5.138;2023-05-07T01:42:55;101693.16;;;13.58;94.67
77062;BME280;65989;51.686;5.138;2023-05-07T01:45:21;101695.34;;;13.62;94.80
77062;BME280;65989;51.686;5.138;2023-05-07T01:47:47;101687.84;;;13.58;94.56
77062;BME280;65989;51.686;5.138;2023-05-07T01:50:15;101682.22;;;13.55;94.72
77062;BME280;65989;51.686;5.138;2023-05-07T01:52:42;101674.25;;;13.55;94.67
77062;BME280;65989;51.686;5.138;2023-05-07T01:55:08;101668.06;;;13.49;94.76
77062;BME280;65989;51.686;5.138;2023-05-07T01:57:33;101669.06;;;13.43;94.80
77062;BME280;65989;51.686;5.138;2023-05-07T01:59:58;101664.22;;;13.40;94.90
77062;BME280;65989;51.686;5.138;2023-05-07T02:02:24;101663.66;;;13.38;94.66
77062;BME280;65989;51.686;5.138;2023-05-07T02:04:49;101675.09;;;13.33;94.84
77062;BME280;65989;51.686;5.138;2023-05-07T02:07:14;101666.78;;;13.29;94.86
77062;BME280;65989;51.686;5.138;2023-05-07T02:09:40;101679.59;;;13.33;94.78
77062;BME280;65989;51.686;5.138;2023-05-07T02:12:05;101677.44;;;13.29;94.94
77062;BME280;65989;51.686;5.138;2023-05-07T02:14:31;101670.81;;;13.32;95.10
77062;BME280;65989;51.686;5.138;2023-05-07T02:16:56;101664.38;;;13.28;95.20
77062;BME280;65989;51.686;5.138;2023-05-07T02:19:21;101671.03;;;13.30;94.87
77062;BME280;65989;51.686;5.138;2023-05-07T02:21:47;101664.13;;;13.29;95.19
77062;BME280;65989;51.686;5.138;2023-05-07T02:24:13;101673.16;;;13.28;95.39
77062;BME280;65989;51.686;5.138;2023-05-07T02:26:39;101674.75;;;13.29;95.28
77062;BME280;65989;51.686;5.138;2023-05-07T02:29:05;101675.59;;;13.30;95.41
77062;BME280;65989;51.686;5.138;2023-05-07T02:31:30;101682.25;;;13.33;95.47
77062;BME280;65989;51.686;5.138;2023-05-07T02:33:56;101681.13;;;13.28;95.40
77062;BME280;65989;51.686;5.138;2023-05-07T02:36:21;101685.41;;;13.29;95.47
77062;BME280;65989;51.686;5.138;2023-05-07T02:38:47;101687.00;;;13.30;95.61
77062;BME280;65989;51.686;5.138;2023-05-07T02:41:12;101677.97;;;13.32;95.52
77062;BME280;65989;51.686;5.138;2023-05-07T02:43:37;101673.72;;;13.30;95.44
77062;BME280;65989;51.686;5.138;2023-05-07T02:46:08;101671.53;;;13.27;95.60
77062;BME280;65989;51.686;5.138;2023-05-07T02:48:33;101669.16;;;13.26;95.65
77062;BME280;65989;51.686;5.138;2023-05-07T02:51:00;101666.44;;;13.21;95.93
77062;BME280;65989;51.686;5.138;2023-05-07T02:53:26;101664.03;;;13.19;95.86
77062;BME280;65989;51.686;5.138;2023-05-07T02:55:55;101667.75;;;13.18;95.77
77062;BME280;65989;51.686;5.138;2023-05-07T02:58:21;101670.09;;;13.14;95.85
77062;BME280;65989;51.686;5.138;2023-05-07T03:00:46;101673.00;;;13.13;95.69
77062;BME280;65989;51.686;5.138;2023-05-07T03:03:12;101673.25;;;13.11;95.95
77062;BME280;65989;51.686;5.138;2023-05-07T03:05:37;101668.75;;;13.12;95.96
77062;BME280;65989;51.686;5.138;2023-05-07T03:08:03;101674.06;;;13.12;95.73
77062;BME280;65989;51.686;5.138;2023-05-07T03:10:29;101676.94;;;13.10;95.95
77062;BME280;65989;51.686;5.138;2023-05-07T03:12:55;101682.53;;;13.09;95.98
77062;BME280;65989;51.686;5.138;2023-05-07T03:15:20;101675.59;;;13.08;95.81
77062;BME280;65989;51.686;5.138;2023-05-07T03:17:47;101676.66;;;13.07;95.80
77062;BME280;65989;51.686;5.138;2023-05-07T03:20:12;101671.59;;;13.05;95.84
77062;BME280;65989;51.686;5.138;2023-05-07T03:22:38;101672.31;;;13.00;96.04
77062;BME280;65989;51.686;5.138;2023-05-07T03:25:04;101676.03;;;12.99;95.83
77062;BME280;65989;51.686;5.138;2023-05-07T03:27:29;101672.31;;;13.00;95.95
77062;BME280;65989;51.686;5.138;2023-05-07T03:29:55;101668.31;;;12.98;96.09
77062;BME280;65989;51.686;5.138;2023-05-07T03:32:20;101677.66;;;13.00;96.41
77062;BME280;65989;51.686;5.138;2023-05-07T03:34:46;101675.81;;;13.01;95.86
77062;BME280;65989;51.686;5.138;2023-05-07T03:37:11;101679.25;;;13.02;96.11
77062;BME280;65989;51.686;5.138;2023-05-07T03:39:36;101663.28;;;13.02;96.15
77062;BME280;65989;51.686;5.138;2023-05-07T03:42:02;101663.84;;;13.04;96.13
77062;BME280;65989;51.686;5.138;2023-05-07T03:44:28;101668.13;;;13.05;96.09
77062;BME280;65989;51.686;5.138;2023-05-07T03:46:53;101666.84;;;13.07;96.40
77062;BME280;65989;51.686;5.138;2023-05-07T03:49:18;101667.06;;;13.06;96.16
77062;BME280;65989;51.686;5.138;2023-05-07T03:51:44;101675.06;;;13.06;96.32
77062;BME280;65989;51.686;5.138;2023-05-07T03:54:09;101669.72;;;13.06;96.34
77062;BME280;65989;51.686;5.138;2023-05-07T03:56:35;101677.72;;;13.06;96.24
77062;BME280;65989;51.686;5.138;2023-05-07T03:59:00;101676.09;;;13.05;96.26
77062;BME280;65989;51.686;5.138;2023-05-07T04:01:26;101681.91;;;13.02;96.42
77062;BME280;65989;51.686;5.138;2023-05-07T04:03:52;101683.53;;;13.03;96.26
77062;BME280;65989;51.686;5.138;2023-05-07T04:06:17;101692.31;;;13.03;96.49
77062;BME280;65989;51.686;5.138;2023-05-07T04:08:43;101691.78;;;13.01;96.55
77062;BME280;65989;51.686;5.138;2023-05-07T04:11:08;101682.97;;;13.00;96.57
77062;BME280;65989;51.686;5.138;2023-05-07T04:13:34;101681.13;;;13.01;96.49
77062;BME280;65989;51.686;5.138;2023-05-07T04:16:01;101679.25;;;13.02;96.62
77062;BME280;65989;51.686;5.138;2023-05-07T04:18:27;101677.97;;;13.04;96.63
77062;BME280;65989;51.686;5.138;2023-05-07T04:20:52;101679.81;;;13.04;96.66
77062;BME280;65989;51.686;5.138;2023-05-07T04:23:21;101681.19;;;13.06;96.78
77062;BME280;65989;51.686;5.138;2023-05-07T04:25:46;101679.06;;;13.08;96.62
77062;BME280;65989;51.686;5.138;2023-05-07T04:28:12;101672.38;;;13.06;96.64
77062;BME280;65989;51.686;5.138;2023-05-07T04:30:38;101676.72;;;13.12;96.99
77062;BME280;65989;51.686;5.138;2023-05-07T04:33:03;101677.28;;;13.14;96.74
77062;BME280;65989;51.686;5.138;2023-05-07T04:35:29;101680.72;;;13.14;96.72
77062;BME280;65989;51.686;5.138;2023-05-07T04:37:54;101693.31;;;13.19;96.71
77062;BME280;65989;51.686;5.138;2023-05-07T04:40:20;101694.09;;;13.20;96.84
77062;BME280;65989;51.686;5.138;2023-05-07T04:42:45;101698.16;;;13.27;96.68
77062;BME280;65989;51.686;5.138;2023-05-07T04:45:10;101693.41;;;13.29;96.96
77062;BME280;65989;51.686;5.138;2023-05-07T04:47:37;101703.31;;;13.34;96.75
77062;BME280;65989;51.686;5.138;2023-05-07T04:50:03;101704.09;;;13.35;96.75
77062;BME280;65989;51.686;5.138;2023-05-07T04:52:28;101705.72;;;13.36;96.88
77062;BME280;65989;51.686;5.138;2023-05-07T04:54:53;101706.81;;;13.40;96.84
77062;BME280;65989;51.686;5.138;2023-05-07T04:57:19;101701.03;;;13.43;96.33
77062;BME280;65989;51.686;5.138;2023-05-07T04:59:44;101704.25;;;13.45;96.84
77062;BME280;65989;51.686;5.138;2023-05-07T05:02:10;101709.81;;;13.43;96.91
77062;BME280;65989;51.686;5.138;2023-05-07T05:04:36;101707.69;;;13.46;96.78
77062;BME280;65989;51.686;5.138;2023-05-07T05:07:02;101698.91;;;13.45;96.72
77062;BME280;65989;51.686;5.138;2023-05-07T05:09:29;101708.50;;;13.46;96.81
77062;BME280;65989;51.686;5.138;2023-05-07T05:11:55;101708.50;;;13.46;96.96
77062;BME280;65989;51.686;5.138;2023-05-07T05:14:20;101703.75;;;13.48;96.65
77062;BME280;65989;51.686;5.138;2023-05-07T05:16:45;101704.53;;;13.49;96.88
77062;BME280;65989;51.686;5.138;2023-05-07T05:19:11;101705.34;;;13.49;96.71
77062;BME280;65989;51.686;5.138;2023-05-07T05:21:36;101714.44;;;13.53;96.69
77062;BME280;65989;51.686;5.138;2023-05-07T05:24:02;101712.03;;;13.52;96.81
77062;BME280;65989;51.686;5.138;2023-05-07T05:26:27;101717.66;;;13.55;96.84
77062;BME280;65989;51.686;5.138;2023-05-07T05:28:52;101719.28;;;13.56;96.78
77062;BME280;65989;51.686;5.138;2023-05-07T05:31:18;101720.34;;;13.61;96.60
77062;BME280;65989;51.686;5.138;2023-05-07T05:33:43;101724.59;;;13.56;96.73
77062;BME280;65989;51.686;5.138;2023-05-07T05:36:10;101720.63;;;13.59;96.77
77062;BME280;65989;51.686;5.138;2023-05-07T05:38:36;101718.50;;;13.61;96.60
77062;BME280;65989;51.686;5.138;2023-05-07T05:41:01;101720.13;;;13.62;96.87
77062;BME280;65989;51.686;5.138;2023-05-07T05:43:27;101725.72;;;13.66;96.44
77062;BME280;65989;51.686;5.138;2023-05-07T05:45:52;101728.41;;;13.66;96.58
77062;BME280;65989;51.686;5.138;2023-05-07T05:48:17;101724.69;;;13.67;96.73
77062;BME280;65989;51.686;5.138;2023-05-07T05:50:43;101729.00;;;13.73;96.65
77062;BME280;65989;51.686;5.138;2023-05-07T05:53:08;101734.59;;;13.71;96.80
77062;BME280;65989;51.686;5.138;2023-05-07T05:55:34;101724.50;;;13.79;96.62
77062;BME280;65989;51.686;5.138;2023-05-07T05:58:00;101732.50;;;13.79;96.71
77062;BME280;65989;51.686;5.138;2023-05-07T06:00:25;101726.13;;;13.80;96.74
77062;BME280;65989;51.686;5.138;2023-05-07T06:02:51;101727.72;;;13.81;96.45
77062;BME280;65989;51.686;5.138;2023-05-07T06:05:17;101728.00;;;13.79;96.36
77062;BME280;65989;51.686;5.138;2023-05-07T06:07:42;101730.75;;;13.89;96.56
77062;BME280;65989;51.686;5.138;2023-05-07T06:10:08;101738.50;;;13.91;96.58
77062;BME280;65989;51.686;5.138;2023-05-07T06:12:33;101740.38;;;13.96;96.47
77062;BME280;65989;51.686;5.138;2023-05-07T06:14:58;101745.75;;;14.01;96.47
77062;BME280;65989;51.686;5.138;2023-05-07T06:17:24;101741.19;;;13.96;96.33
77062;BME280;65989;51.686;5.138;2023-05-07T06:19:49;101746.03;;;13.99;96.12
77062;BME280;65989;51.686;5.138;2023-05-07T06:22:15;101738.88;;;14.05;96.18
77062;BME280;65989;51.686;5.138;2023-05-07T06:24:40;101747.16;;;14.09;96.26
77062;BME280;65989;51.686;5.138;2023-05-07T06:27:05;101742.91;;;14.13;95.97
77062;BME280;65989;51.686;5.138;2023-05-07T06:29:31;101740.25;;;14.13;95.96
77062;BME280;65989;51.686;5.138;2023-05-07T06:32:12;101737.63;;;14.18;95.92
77062;BME280;65989;51.686;5.138;2023-05-07T06:34:39;101745.94;;;14.27;95.79
77062;BME280;65989;51.686;5.138;2023-05-07T06:37:05;101735.63;;;14.36;95.82
77062;BME280;65989;51.686;5.138;2023-05-07T06:39:31;101739.69;;;14.43;95.76
77062;BME280;65989;51.686;5.138;2023-05-07T06:41:56;101749.06;;;14.51;95.53
77062;BME280;65989;51.686;5.138;2023-05-07T06:44:22;101750.16;;;14.55;95.60
77062;BME280;65989;51.686;5.138;2023-05-07T06:46:47;101753.09;;;14.59;95.37
77062;BME280;65989;51.686;5.138;2023-05-07T06:49:13;101754.47;;;14.61;95.29
77062;BME280;65989;51.686;5.138;2023-05-07T06:51:39;101754.22;;;14.68;94.95
77062;BME280;65989;51.686;5.138;2023-05-07T06:54:04;101757.94;;;14.67;94.91
77062;BME280;65989;51.686;5.138;2023-05-07T06:56:31;101751.06;;;14.71;94.59
77062;BME280;65989;51.686;5.138;2023-05-07T06:58:56;101758.88;;;14.83;94.64
77062;BME280;65989;51.686;5.138;2023-05-07T07:01:22;101763.16;;;14.84;94.25
77062;BME280;65989;51.686;5.138;2023-05-07T07:03:47;101765.88;;;14.95;93.83
77062;BME280;65989;51.686;5.138;2023-05-07T07:06:13;101766.69;;;15.00;93.57
77062;BME280;65989;51.686;5.138;2023-05-07T07:08:38;101763.25;;;15.10;93.70
77062;BME280;65989;51.686;5.138;2023-05-07T07:11:05;101761.44;;;15.16;93.49
77062;BME280;65989;51.686;5.138;2023-05-07T07:13:30;101768.91;;;15.24;92.96
77062;BME280;65989;51.686;5.138;2023-05-07T07:15:56;101769.78;;;15.35;92.42
77062;BME280;65989;51.686;5.138;2023-05-07T07:18:21;101756.16;;;15.42;91.93
77062;BME280;65989;51.686;5.138;2023-05-07T07:20:47;101758.56;;;15.48;91.40
77062;BME280;65989;51.686;5.138;2023-05-07T07:23:12;101761.81;;;15.56;91.15
77062;BME280;65989;51.686;5.138;2023-05-07T07:25:37;101764.22;;;15.67;90.83
77062;BME280;65989;51.686;5.138;2023-05-07T07:28:03;101759.44;;;15.75;90.51
77062;BME280;65989;51.686;5.138;2023-05-07T07:30:28;101763.22;;;15.89;89.80
77062;BME280;65989;51.686;5.138;2023-05-07T07:32:54;101764.81;;;16.01;89.42
77062;BME280;65989;51.686;5.138;2023-05-07T07:35:21;101763.75;;;16.22;89.60
77062;BME280;65989;51.686;5.138;2023-05-07T07:37:47;101763.44;;;16.39;88.85
77062;BME280;65989;51.686;5.138;2023-05-07T07:40:15;101751.44;;;16.42;87.78
77062;BME280;65989;51.686;5.138;2023-05-07T07:42:40;101769.56;;;16.61;87.46
77062;BME280;65989;51.686;5.138;2023-05-07T07:45:06;101767.41;;;16.73;86.77
77062;BME280;65989;51.686;5.138;2023-05-07T07:47:31;101770.06;;;16.89;86.46
77062;BME280;65989;51.686;5.138;2023-05-07T07:49:57;101770.84;;;16.89;86.06
77062;BME280;65989;51.686;5.138;2023-05-07T07:52:22;101766.81;;;16.92;84.84
77062;BME280;65989;51.686;5.138;2023-05-07T07:54:48;101769.19;;;17.09;84.47
77062;BME280;65989;51.686;5.138;2023-05-07T07:57:13;101770.97;;;17.29;84.18
77062;BME280;65989;51.686;5.138;2023-05-07T07:59:38;101768.72;;;17.52;83.57
77062;BME280;65989;51.686;5.138;2023-05-07T08:02:05;101766.41;;;17.74;83.01
77062;BME280;65989;51.686;5.138;2023-05-07T08:04:30;101766.59;;;17.88;82.06
77062;BME280;65989;51.686;5.138;2023-05-07T08:06:58;101759.78;;;18.06;81.65
77062;BME280;65989;51.686;5.138;2023-05-07T08:09:23;101770.03;;;18.29;80.67
77062;BME280;65989;51.686;5.138;2023-05-07T08:11:49;101767.31;;;18.58;80.29
77062;BME280;65989;51.686;5.138;2023-05-07T08:14:14;101772.22;;;18.75;79.53
77062;BME280;65989;51.686;5.138;2023-05-07T08:16:41;101774.13;;;18.75;78.41
77062;BME280;65989;51.686;5.138;2023-05-07T08:19:06;101773.50;;;18.83;78.10
77062;BME280;65989;51.686;5.138;2023-05-07T08:21:31;101778.63;;;18.79;77.58
77062;BME280;65989;51.686;5.138;2023-05-07T08:23:57;101779.44;;;18.80;76.69
77062;BME280;65989;51.686;5.138;2023-05-07T08:26:22;101775.94;;;18.79;76.10
77062;BME280;65989;51.686;5.138;2023-05-07T08:28:48;101772.59;;;18.93;76.64
77062;BME280;65989;51.686;5.138;2023-05-07T08:31:13;101780.25;;;19.05;76.09
77062;BME280;65989;51.686;5.138;2023-05-07T08:33:38;101782.06;;;19.09;75.48
77062;BME280;65989;51.686;5.138;2023-05-07T08:36:04;101782.53;;;19.17;76.19
77062;BME280;65989;51.686;5.138;2023-05-07T08:38:30;101787.91;;;19.17;75.90
77062;BME280;65989;51.686;5.138;2023-05-07T08:40:56;101781.59;;;19.27;75.88
77062;BME280;65989;51.686;5.138;2023-05-07T08:43:26;101787.72;;;19.32;75.46
77062;BME280;65989;51.686;5.138;2023-05-07T08:45:53;101789.38;;;19.28;74.62
77062;BME280;65989;51.686;5.138;2023-05-07T08:48:25;101801.66;;;19.34;74.41
77062;BME280;65989;51.686;5.138;2023-05-07T08:50:51;101799.19;;;19.38;74.51
77062;BME280;65989;51.686;5.138;2023-05-07T08:53:16;101793.28;;;19.36;73.32
77062;BME280;65989;51.686;5.138;2023-05-07T08:55:42;101787.63;;;19.37;73.43
77062;BME280;65989;51.686;5.138;2023-05-07T08:58:08;101789.00;;;19.35;73.07
77062;BME280;65989;51.686;5.138;2023-05-07T09:00:35;101792.84;;;19.29;72.99
77062;BME280;65989;51.686;5.138;2023-05-07T09:03:01;101790.66;;;19.31;72.65
77062;BME280;65989;51.686;5.138;2023-05-07T09:05:26;101784.78;;;19.29;72.65
77062;BME280;65989;51.686;5.138;2023-05-07T09:07:52;101784.34;;;19.21;72.88
77062;BME280;65989;51.686;5.138;2023-05-07T09:10:17;101786.75;;;19.42;72.58
77062;BME280;65989;51.686;5.138;2023-05-07T09:12:43;101797.88;;;19.54;73.00
77062;BME280;65989;51.686;5.138;2023-05-07T09:15:09;101790.53;;;19.60;72.19
77062;BME280;65989;51.686;5.138;2023-05-07T09:17:34;101791.50;;;19.69;72.44
77062;BME280;65989;51.686;5.138;2023-05-07T09:20:04;101795.28;;;19.68;72.24
77062;BME280;65989;51.686;5.138;2023-05-07T09:22:33;101796.19;;;19.78;72.27
77062;BME280;65989;51.686;5.138;2023-05-07T09:24:59;101799.09;;;19.81;72.22
77062;BME280;65989;51.686;5.138;2023-05-07T09:27:25;101801.88;;;19.95;71.46
77062;BME280;65989;51.686;5.138;2023-05-07T09:29:56;101792.53;;;20.07;70.92
77062;BME280;65989;51.686;5.138;2023-05-07T09:32:25;101786.22;;;20.31;70.50
77062;BME280;65989;51.686;5.138;2023-05-07T09:34:50;101790.81;;;20.44;70.47
77062;BME280;65989;51.686;5.138;2023-05-07T09:37:15;101780.69;;;20.69;69.77
77062;BME280;65989;51.686;5.138;2023-05-07T09:39:48;101775.97;;;21.16;69.07
77062;BME280;65989;51.686;5.138;2023-05-07T09:42:14;101792.09;;;21.44;67.67
77062;BME280;65989;51.686;5.138;2023-05-07T09:44:40;101783.94;;;21.58;67.77
77062;BME280;65989;51.686;5.138;2023-05-07T09:47:07;101788.56;;;21.58;66.20
77062;BME280;65989;51.686;5.138;2023-05-07T09:49:37;101779.47;;;21.54;66.00
77062;BME280;65989;51.686;5.138;2023-05-07T09:52:06;101789.59;;;21.48;65.71
77062;BME280;65989;51.686;5.138;2023-05-07T09:54:35;101786.63;;;21.58;64.82
77062;BME280;65989;51.686;5.138;2023-05-07T09:57:04;101783.78;;;21.55;64.10
77062;BME280;65989;51.686;5.138;2023-05-07T09:59:31;101781.16;;;21.63;64.45
77062;BME280;65989;51.686;5.138;2023-05-07T10:01:58;101790.72;;;21.70;63.93
77062;BME280;65989;51.686;5.138;2023-05-07T10:04:26;101790.00;;;21.78;64.36
77062;BME280;65989;51.686;5.138;2023-05-07T10:06:51;101785.00;;;21.85;64.33
77062;BME280;65989;51.686;5.138;2023-05-07T10:09:18;101782.53;;;21.75;63.51
77062;BME280;65989;51.686;5.138;2023-05-07T10:11:43;101794.41;;;21.74;64.19
77062;BME280;65989;51.686;5.138;2023-05-07T10:14:10;101796.31;;;21.73;64.78
77062;BME280;65989;51.686;5.138;2023-05-07T10:16:36;101798.78;;;21.84;65.51
77062;BME280;65989;51.686;5.138;2023-05-07T10:19:08;101796.00;;;21.98;65.19
77062;BME280;65989;51.686;5.138;2023-05-07T10:21:37;101804.59;;;22.00;64.72
77062;BME280;65989;51.686;5.138;2023-05-07T10:24:08;101800.38;;;21.85;64.75
77062;BME280;65989;51.686;5.138;2023-05-07T10:26:40;101800.72;;;21.69;64.48
77062;BME280;65989;51.686;5.138;2023-05-07T10:29:14;101791.16;;;21.63;65.10
77062;BME280;65989;51.686;5.138;2023-05-07T10:32:00;101790.13;;;21.73;65.82
77062;BME280;65989;51.686;5.138;2023-05-07T10:34:35;101797.84;;;21.88;65.60
77062;BME280;65989;51.686;5.138;2023-05-07T10:37:02;101794.34;;;21.88;65.07
77062;BME280;65989;51.686;5.138;2023-05-07T10:39:29;101802.63;;;21.91;64.62
77062;BME280;65989;51.686;5.138;2023-05-07T10:41:55;101806.44;;;21.90;64.43
77062;BME280;65989;51.686;5.138;2023-05-07T10:44:27;101802.44;;;21.88;64.39
77062;BME280;65989;51.686;5.138;2023-05-07T10:47:06;101806.69;;;21.80;63.97
77062;BME280;65989;51.686;5.138;2023-05-07T10:50:20;101806.00;;;21.74;64.04
77062;BME280;65989;51.686;5.138;2023-05-07T10:52:22;101803.63;;;21.73;63.93
77062;BME280;65989;51.686;5.138;2023-05-07T10:57:40;101800.53;;;21.66;64.73
77062;BME280;65989;51.686;5.138;2023-05-07T11:05:30;101811.72;;;21.73;63.96
77062;BME280;65989;51.686;5.138;2023-05-07T11:07:57;101805.63;;;21.90;63.28
77062;BME280;65989;51.686;5.138;2023-05-07T11:13:15;101815.88;;;22.02;63.11
77062;BME280;65989;51.686;5.138;2023-05-07T11:15:45;101812.81;;;22.17;62.72
77062;BME280;65989;51.686;5.138;2023-05-07T11:18:13;101812.50;;;22.19;62.65
77062;BME280;65989;51.686;5.138;2023-05-07T11:26:04;101809.19;;;21.99;61.74
77062;BME280;65989;51.686;5.138;2023-05-07T11:28:30;101811.91;;;21.99;61.38
77062;BME280;65989;51.686;5.138;2023-05-07T11:30:57;101812.94;;;22.12;61.75
77062;BME280;65989;51.686;5.138;2023-05-07T11:33:23;101812.25;;;22.29;62.30
77062;BME280;65989;51.686;5.138;2023-05-07T11:35:51;101813.16;;;22.47;62.84
77062;BME280;65989;51.686;5.138;2023-05-07T11:38:18;101817.75;;;22.47;61.12
77062;BME280;65989;51.686;5.138;2023-05-07T11:40:51;101819.22;;;22.62;61.36
77062;BME280;65989;51.686;5.138;2023-05-07T11:43:17;101819.06;;;22.58;61.14
77062;BME280;65989;51.686;5.138;2023-05-07T11:45:42;101817.16;;;22.59;60.67
77062;BME280;65989;51.686;5.138;2023-05-07T11:48:08;101819.22;;;22.62;60.53
77062;BME280;65989;51.686;5.138;2023-05-07T11:50:33;101820.16;;;22.48;60.02
77062;BME280;65989;51.686;5.138;2023-05-07T11:52:59;101815.41;;;22.54;59.96
77062;BME280;65989;51.686;5.138;2023-05-07T11:55:24;101818.97;;;22.72;60.17
77062;BME280;65989;51.686;5.138;2023-05-07T11:57:54;101819.50;;;22.92;60.71
77062;BME280;65989;51.686;5.138;2023-05-07T12:00:19;101821.44;;;23.00;59.73
77062;BME280;65989;51.686;5.138;2023-05-07T12:02:45;101817.75;;;22.96;59.00
77062;BME280;65989;51.686;5.138;2023-05-07T12:05:11;101825.44;;;23.11;58.82
77062;BME280;65989;51.686;5.138;2023-05-07T12:07:36;101820.56;;;23.31;59.56
77062;BME280;65989;51.686;5.138;2023-05-07T12:10:08;101821.84;;;23.42;59.61
77062;BME280;65989;51.686;5.138;2023-05-07T12:12:46;101819.00;;;23.56;58.91
77062;BME280;65989;51.686;5.138;2023-05-07T12:15:15;101818.34;;;23.42;56.06
77062;BME280;65989;51.686;5.138;2023-05-07T12:17:41;101826.94;;;23.35;55.79
77062;BME280;65989;51.686;5.138;2023-05-07T12:20:07;101823.91;;;23.28;54.80
77062;BME280;65989;51.686;5.138;2023-05-07T12:22:33;101821.66;;;23.30;54.76
77062;BME280;65989;51.686;5.138;2023-05-07T12:24:58;101829.50;;;23.49;56.38
77062;BME280;65989;51.686;5.138;2023-05-07T12:27:25;101826.78;;;23.58;54.60
77062;BME280;65989;51.686;5.138;2023-05-07T12:29:51;101819.63;;;23.45;53.21
77062;BME280;65989;51.686;5.138;2023-05-07T12:32:18;101833.94;;;23.54;53.38
77062;BME280;65989;51.686;5.138;2023-05-07T12:34:44;101826.16;;;23.61;56.02
77062;BME280;65989;51.686;5.138;2023-05-07T12:37:10;101829.66;;;23.70;54.08
77062;BME280;65989;51.686;5.138;2023-05-07T12:39:35;101834.75;;;23.81;54.28
77062;BME280;65989;51.686;5.138;2023-05-07T12:42:01;101832.53;;;23.83;52.99
77062;BME280;65989;51.686;5.138;2023-05-07T12:44:31;101835.34;;;23.95;54.55
77062;BME280;65989;51.686;5.138;2023-05-07T12:46:58;101834.56;;;23.95;52.93
77062;BME280;65989;51.686;5.138;2023-05-07T12:49:23;101836.16;;;23.87;51.51
77062;BME280;65989;51.686;5.138;2023-05-07T12:51:50;101839.03;;;23.82;52.63
77062;BME280;65989;51.686;5.138;2023-05-07T12:54:29;101838.56;;;23.89;52.60
77062;BME280;65989;51.686;5.138;2023-05-07T12:57:05;101838.25;;;23.81;52.28
77062;BME280;65989;51.686;5.138;2023-05-07T12:59:37;101837.28;;;23.86;54.13
77062;BME280;65989;51.686;5.138;2023-05-07T13:02:04;101847.47;;;23.80;51.37